createdAt,value
2018-04-06T10:44:32.020Z,6.87
2018-04-06T10:46:59.532Z,4.17
2018-04-06T10:49:26.990Z,4.70
2018-04-06T10:51:54.435Z,6.20
2018-04-06T10:54:21.923Z,5.43
2018-04-06T10:56:49.388Z,6.03
2018-04-06T10:59:20.727Z,5.40
2018-04-06T11:01:48.199Z,2.77
2018-04-06T11:04:15.711Z,5.60
2018-04-06T11:06:43.163Z,3.83
2018-04-06T11:09:10.651Z,5.93
2018-04-06T11:11:38.100Z,4.50
2018-04-06T11:14:05.587Z,5.63
2018-04-06T11:16:33.035Z,4.80
2018-04-06T11:19:00.476Z,2.13
2018-04-06T11:21:27.954Z,3.37
2018-04-06T11:23:55.407Z,4.30
2018-04-06T11:26:22.879Z,4.40
2018-04-06T11:28:50.316Z,6.53
2018-04-06T11:31:17.747Z,3.40
2018-04-06T11:33:45.247Z,6.07
2018-04-06T11:36:12.707Z,3.47
2018-04-06T11:38:40.163Z,4.83
2018-04-06T11:41:07.607Z,6.40
2018-04-06T11:43:35.058Z,3.47
2018-04-06T11:46:02.499Z,4.30
2018-04-06T11:48:29.979Z,3.93
2018-04-06T11:50:57.412Z,3.47
2018-04-06T11:53:24.879Z,4.80
2018-04-06T11:55:52.343Z,4.33
2018-04-06T11:58:19.799Z,4.77
2018-04-06T12:00:47.259Z,4.07
2018-04-06T12:03:14.774Z,3.23
2018-04-06T12:05:42.204Z,4.67
2018-04-06T12:08:09.663Z,3.03
2018-04-06T12:10:37.115Z,2.77
2018-04-06T12:13:05.363Z,1.97
2018-04-06T12:15:32.791Z,4.50
2018-04-06T12:18:00.255Z,2.20
2018-04-06T12:20:27.715Z,5.63
2018-04-06T12:22:55.170Z,3.33
2018-04-06T12:25:22.619Z,3.97
2018-04-06T12:27:50.055Z,2.73
2018-04-06T12:30:17.563Z,3.47
2018-04-06T12:32:45.791Z,5.60
2018-04-06T12:35:13.284Z,4.67
2018-04-06T12:37:40.738Z,5.83
2018-04-06T12:40:08.171Z,6.73
2018-04-06T12:42:35.648Z,2.40
2018-04-06T12:45:03.108Z,4.83
2018-04-06T12:47:30.543Z,4.50
2018-04-06T12:52:31.990Z,4.23
2018-04-06T12:54:59.433Z,3.37
2018-04-06T12:57:26.904Z,5.70
2018-04-06T12:59:54.344Z,3.50
2018-04-06T13:02:21.780Z,3.33
2018-04-06T13:04:49.232Z,2.73
2018-04-06T13:07:17.432Z,4.03
2018-04-06T13:09:44.925Z,6.57
2018-04-06T13:12:12.359Z,2.88
2018-04-06T13:14:40.604Z,3.57
2018-04-06T13:17:09.867Z,2.80
2018-04-06T13:19:37.360Z,2.93
2018-04-06T13:22:04.818Z,3.60
2018-04-06T13:24:32.991Z,3.77
2018-04-06T13:27:00.468Z,4.83
2018-04-06T13:29:27.923Z,3.47
2018-04-06T13:31:55.399Z,5.47
2018-04-06T13:34:22.836Z,6.47
2018-04-06T13:36:50.287Z,2.10
2018-04-06T13:39:17.751Z,4.97
2018-04-06T13:41:45.223Z,4.23
2018-04-06T13:44:12.683Z,4.50
2018-04-06T13:46:40.190Z,3.47
2018-04-06T13:49:08.383Z,3.00
2018-04-06T13:51:35.946Z,3.93
2018-04-06T13:54:03.395Z,3.47
2018-04-06T13:56:30.852Z,3.33
2018-04-06T14:01:48.617Z,6.83
2018-04-06T14:04:16.072Z,5.53
2018-04-06T14:06:43.585Z,5.17
2018-04-06T14:09:11.809Z,5.57
2018-04-06T14:11:39.253Z,5.33
2018-04-06T14:14:06.857Z,9.23
2018-04-06T14:16:35.069Z,5.77
2018-04-06T14:19:02.559Z,6.00
2018-04-06T14:21:30.008Z,5.43
2018-04-06T14:23:57.448Z,6.23
2018-04-06T14:26:24.907Z,7.37
2018-04-06T14:28:52.372Z,5.30
2018-04-06T14:31:19.873Z,6.03
2018-04-06T14:33:47.308Z,6.97
2018-04-06T14:36:14.759Z,7.70
2018-04-06T14:38:42.220Z,6.67
2018-04-06T14:41:09.683Z,5.50
2018-04-06T14:43:37.132Z,7.10
2018-04-06T14:46:05.137Z,6.57
2018-04-06T14:48:33.359Z,7.23
2018-04-06T14:51:00.832Z,5.67
2018-04-06T14:53:28.311Z,6.73
2018-04-06T14:55:56.560Z,6.57
2018-04-06T14:58:24.024Z,7.70
2018-04-06T15:00:51.492Z,10.13
2018-04-06T15:03:18.976Z,7.83
2018-04-06T15:05:46.440Z,8.07
2018-04-06T15:08:13.877Z,6.20
2018-04-06T15:10:42.104Z,7.37
2018-04-06T15:13:09.567Z,7.17
2018-04-06T15:15:37.040Z,7.70
2018-04-06T15:18:04.495Z,7.17
2018-04-06T15:20:31.974Z,5.20
2018-04-06T15:23:00.213Z,9.47
2018-04-06T15:25:27.696Z,6.37
2018-04-06T15:27:55.131Z,6.20
2018-04-06T15:30:22.578Z,6.73
2018-04-06T15:32:50.080Z,7.40
2018-04-06T15:35:17.543Z,6.57
2018-04-06T15:37:45.931Z,6.57
2018-04-06T15:40:13.400Z,10.70
2018-04-06T15:42:40.859Z,6.93
2018-04-06T15:45:09.333Z,6.87
2018-04-06T15:47:36.811Z,8.00
2018-04-06T15:50:04.275Z,8.73
2018-04-06T15:52:31.733Z,8.50
2018-04-06T15:54:59.195Z,4.70
2018-04-06T15:57:26.651Z,4.97
2018-04-06T15:59:54.154Z,7.70
2018-04-06T16:02:21.640Z,8.77
2018-04-06T16:04:49.122Z,10.37
2018-04-06T16:07:16.594Z,9.40
2018-04-06T16:09:44.831Z,7.43
2018-04-06T16:12:12.272Z,9.47
2018-04-06T16:14:39.748Z,5.47
2018-04-06T16:17:07.235Z,8.63
2018-04-06T16:19:35.447Z,7.57
2018-04-06T16:22:03.012Z,5.70
2018-04-06T16:24:30.500Z,7.43
2018-04-06T16:26:57.964Z,7.43
2018-04-06T16:29:25.462Z,7.57
2018-04-06T16:31:52.931Z,7.03
2018-04-06T16:34:20.393Z,8.07
2018-04-06T16:36:48.834Z,7.97
2018-04-06T16:39:17.107Z,5.73
2018-04-06T16:41:45.348Z,7.10
2018-04-06T16:44:12.835Z,6.37
2018-04-06T16:46:40.304Z,5.53
2018-04-06T16:49:07.760Z,6.50
2018-04-06T16:51:36.008Z,6.37
2018-04-06T16:54:03.484Z,5.87
2018-04-06T16:56:31.712Z,6.60
2018-04-06T16:58:59.185Z,6.43
2018-04-06T17:01:26.877Z,10.13
2018-04-06T17:03:56.295Z,9.40
2018-04-06T17:06:23.772Z,11.90
2018-04-06T17:08:51.229Z,8.37
2018-04-06T17:11:18.731Z,6.73
2018-04-06T17:13:46.974Z,7.47
2018-04-06T17:16:14.460Z,8.30
2018-04-06T17:18:41.985Z,6.60
2018-04-06T17:21:09.474Z,5.57
2018-04-06T17:23:36.960Z,4.67
2018-04-06T17:26:05.209Z,6.53
2018-04-06T17:28:32.657Z,7.90
2018-04-06T17:31:00.145Z,6.70
2018-04-06T17:33:27.607Z,7.50
2018-04-06T17:35:55.096Z,4.43
2018-04-06T17:38:22.580Z,8.27
2018-04-06T17:40:50.060Z,6.03
2018-04-06T17:43:18.339Z,6.90
2018-04-06T17:45:46.582Z,7.23
2018-04-06T17:48:14.072Z,7.90
2018-04-06T17:50:43.017Z,7.43
2018-04-06T17:53:10.483Z,5.70
2018-04-06T17:55:37.989Z,6.83
2018-04-06T17:58:05.477Z,7.50
2018-04-06T18:00:32.949Z,7.97
2018-04-06T18:03:00.416Z,4.70
2018-04-06T18:05:27.885Z,9.10
2018-04-06T18:07:55.369Z,9.57
2018-04-06T18:10:22.877Z,8.00
2018-04-06T18:12:50.364Z,4.70
2018-04-06T18:15:17.862Z,5.40
2018-04-06T18:17:45.356Z,6.23
2018-04-06T18:20:12.864Z,5.90
2018-04-06T18:22:40.321Z,6.30
2018-04-06T18:25:07.780Z,6.73
2018-04-06T18:27:35.255Z,6.60
2018-04-06T18:30:02.719Z,5.30
2018-04-06T18:32:30.209Z,6.77
2018-04-06T18:34:58.482Z,5.80
2018-04-06T18:37:25.968Z,5.90
2018-04-06T18:39:53.420Z,10.90
2018-04-06T18:42:20.897Z,5.57
2018-04-06T18:44:48.423Z,7.17
2018-04-06T18:47:15.856Z,8.95
2018-04-06T18:49:43.340Z,8.03
2018-04-06T18:52:11.641Z,7.50
2018-04-06T18:54:39.063Z,6.17
2018-04-06T18:57:07.337Z,6.80
2018-04-06T18:59:35.609Z,11.03
2018-04-06T19:02:03.914Z,7.17
2018-04-06T19:04:31.504Z,9.87
2018-04-06T19:06:58.991Z,9.60
2018-04-06T19:09:27.238Z,11.37
2018-04-06T19:11:54.742Z,8.13
2018-04-06T19:14:23.004Z,7.77
2018-04-06T19:16:51.230Z,5.50
2018-04-06T19:19:18.729Z,7.57
2018-04-06T19:21:46.201Z,6.80
2018-04-06T19:24:14.465Z,6.80
2018-04-06T19:26:42.733Z,7.35
2018-04-06T19:29:10.200Z,8.83
2018-04-06T19:31:38.452Z,9.07
2018-04-06T19:34:05.924Z,8.23
2018-04-06T19:36:33.410Z,8.87
2018-04-06T19:39:00.884Z,8.70
2018-04-06T19:41:28.414Z,9.33
2018-04-06T19:43:55.906Z,8.03
2018-04-06T19:46:24.108Z,7.97
2018-04-06T19:48:51.584Z,7.07
2018-04-06T19:51:19.044Z,8.03
2018-04-06T19:53:47.276Z,7.20
2018-04-06T19:56:14.792Z,5.93
2018-04-06T19:58:42.995Z,5.97
2018-04-06T20:01:10.476Z,10.67
2018-04-06T20:03:37.957Z,7.13
2018-04-06T20:06:06.374Z,7.70
2018-04-06T20:08:33.863Z,8.80
2018-04-06T20:11:01.341Z,8.93
2018-04-06T20:13:29.993Z,8.80
2018-04-06T20:15:57.871Z,8.10
2018-04-06T20:18:25.393Z,9.10
2018-04-06T20:20:53.745Z,8.27
2018-04-06T20:23:23.837Z,8.70
2018-04-06T20:25:51.352Z,10.77
2018-04-06T20:28:20.640Z,9.97
2018-04-06T20:30:49.974Z,7.13
2018-04-06T20:33:19.006Z,7.37
2018-04-06T20:35:46.968Z,9.80
2018-04-06T20:38:15.213Z,9.00
2018-04-06T20:40:42.741Z,7.57
2018-04-06T20:43:11.453Z,9.80
2018-04-06T20:45:39.133Z,7.57
2018-04-06T20:48:06.628Z,9.33
2018-04-06T20:50:34.521Z,9.43
2018-04-06T20:53:02.099Z,8.40
2018-04-06T20:55:30.410Z,8.07
2018-04-06T20:58:00.634Z,8.17
2018-04-06T21:00:29.314Z,8.53
2018-04-06T21:03:00.895Z,8.67
2018-04-06T21:05:28.408Z,9.73
2018-04-06T21:07:55.879Z,9.47
2018-04-06T21:10:24.592Z,8.27
2018-04-06T21:12:53.293Z,10.07
2018-04-06T21:15:20.776Z,7.83
2018-04-06T21:17:48.944Z,8.40
2018-04-06T21:20:16.433Z,8.90
2018-04-06T21:22:53.812Z,8.20
2018-04-06T21:25:23.269Z,9.40
2018-04-06T21:27:51.558Z,8.30
2018-04-06T21:30:20.911Z,7.83
2018-04-06T21:32:49.176Z,7.70
2018-04-06T21:35:17.596Z,9.60
2018-04-06T21:37:45.982Z,9.17
2018-04-06T21:40:14.392Z,10.53
2018-04-06T21:42:42.973Z,8.83
2018-04-06T21:45:10.733Z,8.23
2018-04-06T21:47:38.231Z,8.23
2018-04-06T21:50:05.680Z,7.70
2018-04-06T21:52:33.923Z,8.70
2018-04-06T21:55:01.413Z,8.33
2018-04-06T21:57:29.672Z,7.63
2018-04-06T21:59:57.930Z,9.33
2018-04-06T22:02:25.440Z,8.33
2018-04-06T22:04:52.932Z,8.13
2018-04-06T22:07:20.397Z,10.17
2018-04-06T22:09:47.863Z,9.83
2018-04-06T22:12:15.321Z,9.37
2018-04-06T22:14:42.798Z,10.93
2018-04-06T22:17:11.069Z,9.33
2018-04-06T22:19:39.295Z,9.80
2018-04-06T22:22:07.006Z,8.53
2018-04-06T22:24:34.501Z,10.00
2018-04-06T22:27:02.008Z,11.00
2018-04-06T22:29:29.496Z,10.37
2018-04-06T22:31:56.968Z,8.23
2018-04-06T22:34:24.419Z,8.87
2018-04-06T22:36:51.889Z,9.80
2018-04-06T22:39:19.353Z,8.37
2018-04-06T22:41:46.796Z,8.80
2018-04-06T22:44:14.276Z,9.03
2018-04-06T22:46:41.748Z,7.47
2018-04-06T22:49:09.227Z,8.47
2018-04-06T22:51:37.476Z,9.77
2018-04-06T22:54:04.941Z,9.17
2018-04-06T22:56:32.376Z,8.60
2018-04-06T22:58:59.836Z,8.33
2018-04-06T23:01:27.318Z,10.70
2018-04-06T23:03:55.565Z,10.27
2018-04-06T23:06:23.016Z,10.47
2018-04-06T23:08:50.448Z,8.23
2018-04-06T23:11:17.920Z,8.13
2018-04-06T23:13:45.377Z,9.97
2018-04-06T23:16:12.820Z,9.40
2018-04-06T23:18:40.300Z,8.70
2018-04-06T23:21:07.741Z,9.77
2018-04-06T23:23:35.208Z,11.07
2018-04-06T23:26:02.680Z,9.07
2018-04-06T23:28:30.151Z,8.27
2018-04-06T23:30:57.605Z,9.37
2018-04-06T23:33:25.836Z,9.87
2018-04-06T23:35:53.311Z,8.43
2018-04-06T23:38:20.780Z,11.73
2018-04-06T23:40:48.228Z,9.10
2018-04-06T23:43:15.695Z,8.20
2018-04-06T23:45:43.148Z,9.17
2018-04-06T23:48:10.760Z,9.07
2018-04-06T23:50:38.243Z,9.73
2018-04-06T23:53:05.734Z,11.07
2018-04-06T23:55:33.951Z,9.77
2018-04-06T23:58:01.426Z,9.10
